createdAt,value
2018-06-25T00:01:06.431Z,100862.09
2018-06-25T00:03:13.308Z,100866.42
2018-06-25T00:05:18.891Z,100869.21
2018-06-25T00:07:24.202Z,100867.87
2018-06-25T00:09:29.547Z,100873.41
2018-06-25T00:11:35.355Z,100869.64
2018-06-25T00:13:40.698Z,100871.92
2018-06-25T00:15:46.060Z,100869.84
2018-06-25T00:17:51.488Z,100869.84
2018-06-25T00:19:56.808Z,100871.92
2018-06-25T00:22:02.225Z,100881.63
2018-06-25T00:24:07.647Z,100880.14
2018-06-25T00:26:12.626Z,100874.63
2018-06-25T00:28:17.937Z,100873.53
2018-06-25T00:30:23.260Z,100867.89
2018-06-25T00:32:28.673Z,100875.44
2018-06-25T00:34:34.212Z,100874.00
2018-06-25T00:36:39.730Z,100872.02
2018-06-25T00:38:45.081Z,100870.78
2018-06-25T00:40:50.366Z,100864.70
2018-06-25T00:42:58.347Z,100870.16
2018-06-25T00:45:03.753Z,100872.53
2018-06-25T00:47:09.120Z,100869.77
2018-06-25T00:49:14.495Z,100862.74
2018-06-25T00:51:19.850Z,100864.07
2018-06-25T00:53:26.115Z,100861.31
2018-06-25T00:55:31.475Z,100860.84
2018-06-25T00:57:36.844Z,100863.02
2018-06-25T00:59:56.758Z,100864.35
2018-06-25T01:02:02.149Z,100861.26
2018-06-25T01:04:07.521Z,100865.82
2018-06-25T01:06:13.078Z,100864.23
2018-06-25T01:08:18.403Z,100859.11
2018-06-25T01:10:23.754Z,100867.00
2018-06-25T01:12:29.305Z,100868.58
2018-06-25T01:14:34.651Z,100868.10
2018-06-25T01:16:39.975Z,100870.29
2018-06-25T01:18:45.268Z,100869.81
2018-06-25T01:20:50.627Z,100872.38
2018-06-25T01:22:56.034Z,100869.72
2018-06-25T01:25:01.328Z,100866.58
2018-06-25T01:27:09.631Z,100863.77
2018-06-25T01:29:15.053Z,100870.29
2018-06-25T01:31:20.380Z,100867.09
2018-06-25T01:33:26.171Z,100872.04
2018-06-25T01:35:31.646Z,100871.22
2018-06-25T01:37:36.963Z,100873.50
2018-06-25T01:39:42.296Z,100876.63
2018-06-25T01:41:47.661Z,100874.55
2018-06-25T01:43:52.954Z,100869.35
2018-06-25T01:46:01.169Z,100862.41
2018-06-25T01:48:07.051Z,100859.98
2018-06-25T01:50:12.336Z,100859.12
2018-06-25T01:52:17.655Z,100860.08
2018-06-25T01:54:23.443Z,100857.61
2018-06-25T01:56:28.787Z,100846.55
2018-06-25T01:58:34.331Z,100857.92
2018-06-25T02:00:39.658Z,100855.87
2018-06-25T02:02:45.092Z,100859.86
2018-06-25T02:04:50.464Z,100859.48
2018-06-25T02:06:55.847Z,100856.44
2018-06-25T02:09:01.330Z,100857.67
2018-06-25T02:11:06.705Z,100858.05
2018-06-25T02:13:12.161Z,100862.05
2018-06-25T02:15:17.492Z,100853.93
2018-06-25T02:17:22.849Z,100856.50
2018-06-25T02:19:28.167Z,100850.33
2018-06-25T02:21:33.462Z,100853.68
2018-06-25T02:23:39.075Z,100852.73
2018-06-25T02:25:44.573Z,100855.87
2018-06-25T02:27:49.850Z,100853.59
2018-06-25T02:29:55.249Z,100859.16
2018-06-25T02:32:00.633Z,100857.35
2018-06-25T02:34:06.596Z,100857.45
2018-06-25T02:36:11.995Z,100861.81
2018-06-25T02:38:17.355Z,100861.34
2018-06-25T02:40:22.634Z,100856.97
2018-06-25T02:42:27.931Z,100860.11
2018-06-25T02:44:33.301Z,100856.25
2018-06-25T02:46:39.057Z,100858.24
2018-06-25T02:48:44.437Z,100863.25
2018-06-25T02:50:49.762Z,100857.06
2018-06-25T02:52:55.322Z,100857.67
2018-06-25T02:55:00.669Z,100861.66
2018-06-25T02:57:06.034Z,100861.28
2018-06-25T02:59:11.389Z,100863.18
2018-06-25T03:01:16.699Z,100857.98
2018-06-25T03:03:21.992Z,100858.55
2018-06-25T03:05:27.324Z,100860.84
2018-06-25T03:07:32.605Z,100861.31
2018-06-25T03:09:38.020Z,100861.31
2018-06-25T03:11:43.304Z,100865.30
2018-06-25T03:13:48.644Z,100864.58
2018-06-25T03:15:54.037Z,100866.00
2018-06-25T03:17:59.069Z,100865.14
2018-06-25T03:20:04.383Z,100866.22
2018-06-25T03:22:09.715Z,100866.69
2018-06-25T03:24:15.008Z,100867.83
2018-06-25T03:26:20.331Z,100870.61
2018-06-25T03:28:26.503Z,100868.20
2018-06-25T03:30:31.928Z,100877.05
2018-06-25T03:32:37.315Z,100876.66
2018-06-25T03:34:42.648Z,100874.60
2018-06-25T03:36:48.094Z,100875.93
2018-06-25T03:38:53.477Z,100875.17
2018-06-25T03:40:58.442Z,100872.52
2018-06-25T03:43:03.728Z,100883.15
2018-06-25T03:45:09.064Z,100882.67
2018-06-25T03:47:14.460Z,100881.44
2018-06-25T03:49:19.846Z,100882.20
2018-06-25T03:51:26.526Z,100881.98
2018-06-25T03:53:31.849Z,100885.78
2018-06-25T03:55:37.288Z,100886.89
2018-06-25T03:57:42.644Z,100887.28
2018-06-25T03:59:47.988Z,100891.64
2018-06-25T04:01:53.332Z,100892.28
2018-06-25T04:03:58.736Z,100900.27
2018-06-25T04:06:04.083Z,100903.69
2018-06-25T04:08:09.381Z,100897.77
2018-06-25T04:10:14.740Z,100900.42
2018-06-25T04:12:20.062Z,100906.50
2018-06-25T04:14:26.548Z,100904.13
2018-06-25T04:16:31.951Z,100908.84
2018-06-25T04:18:37.328Z,100911.80
2018-06-25T04:20:42.985Z,100917.12
2018-06-25T04:22:48.355Z,100911.80
2018-06-25T04:24:53.674Z,100917.69
2018-06-25T04:26:59.083Z,100920.25
2018-06-25T04:29:04.531Z,100917.31
2018-06-25T04:31:10.005Z,100919.23
2018-06-25T04:33:15.532Z,100918.86
2018-06-25T04:35:20.923Z,100918.48
2018-06-25T04:37:27.112Z,100919.49
2018-06-25T04:39:32.487Z,100927.63
2018-06-25T04:41:37.857Z,100930.20
2018-06-25T04:43:43.868Z,100927.45
2018-06-25T04:45:49.177Z,100927.70
2018-06-25T04:47:54.487Z,100933.15
2018-06-25T04:49:59.879Z,100931.53
2018-06-25T04:52:05.345Z,100933.34
2018-06-25T04:54:10.689Z,100934.03
2018-06-25T04:56:16.190Z,100934.34
2018-06-25T04:58:21.517Z,100934.05
2018-06-25T05:00:26.845Z,100932.25
2018-06-25T05:02:32.211Z,100930.73
2018-06-25T05:04:37.531Z,100933.66
2018-06-25T05:06:42.845Z,100939.26
2018-06-25T05:08:48.225Z,100941.53
2018-06-25T05:10:53.540Z,100948.83
2018-06-25T05:12:58.899Z,100940.53
2018-06-25T05:15:04.299Z,100947.85
2018-06-25T05:17:09.606Z,100950.39
2018-06-25T05:19:14.977Z,100953.11
2018-06-25T05:21:20.281Z,100957.08
2018-06-25T05:23:26.691Z,100953.88
2018-06-25T05:25:32.015Z,100949.50
2018-06-25T05:27:37.328Z,100959.89
2018-06-25T05:29:42.626Z,100955.47
2018-06-25T05:31:48.013Z,100960.86
2018-06-25T05:33:53.335Z,100962.72
2018-06-25T05:35:59.648Z,100966.77
2018-06-25T05:38:04.999Z,100969.44
2018-06-25T05:40:10.412Z,100963.16
2018-06-25T05:42:22.621Z,100973.20
2018-06-25T05:44:28.006Z,100975.20
2018-06-25T05:46:33.330Z,100980.30
2018-06-25T05:48:38.661Z,100979.24
2018-06-25T05:50:43.997Z,100982.25
2018-06-25T05:52:49.348Z,100981.30
2018-06-25T05:54:54.718Z,100983.77
2018-06-25T05:57:00.054Z,100976.25
2018-06-25T05:59:05.492Z,100985.20
2018-06-25T06:01:10.823Z,100984.09
2018-06-25T06:03:16.112Z,100985.05
2018-06-25T06:05:21.536Z,100991.95
2018-06-25T06:07:26.893Z,100993.05
2018-06-25T06:09:32.219Z,100998.80
2018-06-25T06:11:37.665Z,100995.79
2018-06-25T06:13:43.006Z,100999.63
2018-06-25T06:15:48.307Z,101003.14
2018-06-25T06:17:53.662Z,101003.30
2018-06-25T06:19:58.971Z,101002.63
2018-06-25T06:22:04.316Z,101001.88
2018-06-25T06:24:09.661Z,101005.44
2018-06-25T06:26:15.083Z,101006.77
2018-06-25T06:28:20.428Z,101011.42
2018-06-25T06:30:26.869Z,101010.25
2018-06-25T06:32:32.218Z,101005.68
2018-06-25T06:34:37.625Z,101013.39
2018-06-25T06:36:44.987Z,101013.80
2018-06-25T06:38:50.350Z,101008.16
2018-06-25T06:40:57.854Z,101012.82
2018-06-25T06:43:03.205Z,101015.48
2018-06-25T06:45:08.557Z,101015.30
2018-06-25T06:49:27.870Z,101024.27
2018-06-25T06:51:33.465Z,101026.13
2018-06-25T06:53:38.821Z,101022.20
2018-06-25T06:55:44.262Z,101025.20
2018-06-25T06:57:49.644Z,101030.76
2018-06-25T06:59:55.053Z,101028.41
2018-06-25T07:02:00.398Z,101033.20
2018-06-25T07:04:05.735Z,101025.53
2018-06-25T07:06:11.113Z,101031.81
2018-06-25T07:08:16.467Z,101027.91
2018-06-25T07:10:22.717Z,101022.69
2018-06-25T07:12:28.040Z,101026.11
2018-06-25T07:14:33.410Z,101024.93
2018-06-25T07:16:39.756Z,101032.03
2018-06-25T07:18:45.282Z,101028.09
2018-06-25T07:20:50.646Z,101022.92
2018-06-25T07:22:56.108Z,101018.60
2018-06-25T07:25:01.488Z,101022.66
2018-06-25T07:27:07.196Z,101025.22
2018-06-25T07:29:12.566Z,101020.65
2018-06-25T07:31:27.101Z,101023.37
2018-06-25T07:33:35.731Z,101023.39
2018-06-25T07:35:46.567Z,101022.91
2018-06-25T07:37:56.102Z,101025.38
2018-06-25T07:40:13.366Z,101023.34
2018-06-25T07:42:25.137Z,101024.51
2018-06-25T07:44:36.712Z,101025.33
2018-06-25T07:46:46.009Z,101023.90
2018-06-25T07:49:06.363Z,101026.52
2018-06-25T07:51:24.641Z,101018.94
2018-06-25T07:53:30.662Z,101019.61
2018-06-25T07:55:36.127Z,101024.03
2018-06-25T07:57:41.535Z,101016.27
2018-06-25T07:59:46.994Z,101014.94
2018-06-25T08:01:52.573Z,101023.83
2018-06-25T08:03:57.955Z,101023.53
2018-06-25T08:06:03.601Z,101028.19
2018-06-25T08:08:09.108Z,101024.46
2018-06-25T08:10:14.632Z,101019.36
2018-06-25T08:12:21.149Z,101026.41
2018-06-25T08:14:27.164Z,101027.41
2018-06-25T08:16:32.492Z,101032.02
2018-06-25T08:18:38.147Z,101033.97
2018-06-25T08:20:43.590Z,101035.27
2018-06-25T08:22:48.933Z,101033.94
2018-06-25T08:24:54.432Z,101035.20
2018-06-25T08:29:37.634Z,101034.66
2018-06-25T08:32:51.708Z,101039.41
2018-06-25T08:35:18.771Z,101044.47
2018-06-25T08:37:28.784Z,101045.77
2018-06-25T08:39:41.575Z,101054.56
2018-06-25T08:41:57.727Z,101056.14
2018-06-25T08:44:12.206Z,101060.66
2018-06-25T08:46:30.774Z,101061.20
2018-06-25T08:48:43.988Z,101064.83
2018-06-25T08:51:02.158Z,101068.05
2018-06-25T08:53:28.716Z,101069.69
2018-06-25T08:55:39.540Z,101069.97
2018-06-25T08:57:45.895Z,101072.94
2018-06-25T08:59:51.359Z,101066.91
2018-06-25T09:01:56.760Z,101067.42
2018-06-25T09:04:02.182Z,101064.19
2018-06-25T09:06:07.618Z,101068.20
2018-06-25T09:08:12.921Z,101065.26
2018-06-25T09:10:18.376Z,101071.59
2018-06-25T09:12:23.795Z,101079.89
2018-06-25T09:14:29.100Z,101077.48
2018-06-25T09:16:34.489Z,101067.67
2018-06-25T09:18:39.779Z,101069.88
2018-06-25T09:20:45.152Z,101064.59
2018-06-25T09:22:50.516Z,101060.59
2018-06-25T09:24:56.028Z,101065.09
2018-06-25T09:27:01.367Z,101064.14
2018-06-25T09:29:06.699Z,101061.95
2018-06-25T09:31:12.053Z,101062.66
2018-06-25T09:33:17.440Z,101061.09
2018-06-25T09:35:22.955Z,101069.14
2018-06-25T09:37:28.283Z,101070.73
2018-06-25T09:39:33.690Z,101064.05
2018-06-25T09:41:39.150Z,101063.95
2018-06-25T09:43:44.372Z,101057.98
2018-06-25T09:45:50.137Z,101062.25
2018-06-25T09:47:55.504Z,101061.41
2018-06-25T09:50:01.002Z,101064.30
2018-06-25T09:52:06.476Z,101063.59
2018-06-25T09:54:12.011Z,101065.91
2018-06-25T09:56:17.396Z,101062.73
2018-06-25T09:58:22.878Z,101062.14
2018-06-25T10:00:34.042Z,101063.09
2018-06-25T10:02:39.539Z,101060.16
2018-06-25T10:04:44.540Z,101060.52
2018-06-25T10:06:49.811Z,101062.48
2018-06-25T10:08:55.186Z,101061.38
2018-06-25T10:11:00.530Z,101054.81
2018-06-25T10:13:05.909Z,101062.00
2018-06-25T10:15:11.360Z,101056.91
2018-06-25T10:17:16.786Z,101060.19
2018-06-25T10:19:21.684Z,101064.94
2018-06-25T10:21:27.496Z,101064.08
2018-06-25T10:23:32.783Z,101071.36
2018-06-25T10:25:38.182Z,101059.95
2018-06-25T10:27:43.701Z,101063.11
2018-06-25T10:29:49.025Z,101061.77
2018-06-25T10:31:54.303Z,101067.34
2018-06-25T10:33:59.688Z,101066.16
2018-06-25T10:36:05.160Z,101067.98
2018-06-25T10:38:10.726Z,101058.11
2018-06-25T10:40:16.128Z,101050.23
2018-06-25T10:42:21.585Z,101046.59
2018-06-25T10:44:27.440Z,101056.09
2018-06-25T10:46:32.801Z,101049.75
2018-06-25T10:48:38.273Z,101053.27
2018-06-25T10:50:43.314Z,101047.44
2018-06-25T10:59:39.923Z,101041.97
2018-06-25T11:01:45.373Z,101048.30
2018-06-25T11:03:50.782Z,101053.53
2018-06-25T11:05:56.347Z,101047.44
2018-06-25T11:08:01.884Z,101042.93
2018-06-25T11:10:07.328Z,101047.78
2018-06-25T11:12:12.824Z,101044.09
2018-06-25T11:14:18.406Z,101046.42
2018-06-25T11:16:23.712Z,101046.27
2018-06-25T11:18:29.267Z,101044.70
2018-06-25T11:20:34.857Z,101042.88
2018-06-25T11:22:40.271Z,101041.16
2018-06-25T11:24:45.697Z,101034.21
2018-06-25T11:26:51.139Z,101027.98
2018-06-25T11:28:56.500Z,101037.70
2018-06-25T11:31:01.899Z,101034.27
2018-06-25T11:33:07.671Z,101031.84
2018-06-25T11:35:13.103Z,101030.98
2018-06-25T11:37:18.660Z,101034.89
2018-06-25T11:39:24.049Z,101024.75
2018-06-25T11:41:29.514Z,101030.81
2018-06-25T11:43:34.952Z,101030.48
2018-06-25T11:45:40.464Z,101035.95
2018-06-25T11:47:45.851Z,101034.89
2018-06-25T11:49:51.256Z,101038.66
2018-06-25T11:51:56.631Z,101039.80
2018-06-25T11:54:02.167Z,101040.52
2018-06-25T11:56:07.703Z,101038.72
2018-06-25T11:58:13.131Z,101032.05
2018-06-25T12:00:18.518Z,101028.88
2018-06-25T12:02:24.032Z,101026.34
2018-06-25T12:04:29.948Z,101028.62
2018-06-25T12:06:38.760Z,101031.39
2018-06-25T12:08:44.209Z,101030.35
2018-06-25T12:10:49.883Z,101030.19
2018-06-25T12:12:55.478Z,101026.99
2018-06-25T12:15:00.827Z,101028.67
2018-06-25T12:17:06.182Z,101029.83
2018-06-25T12:19:11.709Z,101029.44
2018-06-25T12:21:17.109Z,101031.02
2018-06-25T12:23:22.473Z,101030.89
2018-06-25T12:25:27.865Z,101032.36
2018-06-25T12:27:33.252Z,101031.78
2018-06-25T12:29:38.565Z,101025.78
2018-06-25T12:31:43.962Z,101031.23
2018-06-25T12:33:49.365Z,101023.06
2018-06-25T12:35:54.847Z,101034.64
2018-06-25T12:38:00.273Z,101024.89
2018-06-25T12:40:05.731Z,101030.01
2018-06-25T12:42:11.098Z,101025.83
2018-06-25T12:44:16.420Z,101033.36
2018-06-25T12:46:21.751Z,101030.88
2018-06-25T12:48:27.836Z,101025.23
2018-06-25T12:50:33.156Z,101022.63
2018-06-25T12:52:38.597Z,101030.28
2018-06-25T12:54:44.028Z,101027.52
2018-06-25T12:56:49.484Z,101025.47
2018-06-25T12:58:54.887Z,101019.74
2018-06-25T13:01:00.227Z,101020.80
2018-06-25T13:03:05.800Z,101019.42
2018-06-25T13:05:11.857Z,101021.45
2018-06-25T13:07:17.225Z,101025.77
2018-06-25T13:09:22.614Z,101026.64
2018-06-25T13:11:27.893Z,101033.50
2018-06-25T13:13:33.288Z,101030.77
2018-06-25T13:15:38.640Z,101038.77
2018-06-25T13:17:44.170Z,101042.88
2018-06-25T13:19:49.555Z,101040.80
2018-06-25T13:21:54.985Z,101037.92
2018-06-25T13:24:00.378Z,101035.17
2018-06-25T13:26:05.771Z,101036.37
2018-06-25T13:28:11.172Z,101037.05
2018-06-25T13:30:16.677Z,101032.52
2018-06-25T13:32:22.007Z,101032.18
2018-06-25T13:34:27.936Z,101032.67
2018-06-25T13:36:33.063Z,101030.48
2018-06-25T13:38:38.340Z,101035.84
2018-06-25T13:40:43.734Z,101033.61
2018-06-25T13:42:49.138Z,101028.85
2018-06-25T13:44:54.486Z,101032.02
2018-06-25T13:46:59.881Z,101029.58
2018-06-25T13:49:05.069Z,101024.58
2018-06-25T13:51:10.389Z,101019.91
2018-06-25T13:53:16.547Z,101023.80
2018-06-25T13:55:21.947Z,101019.38
2018-06-25T13:57:27.994Z,101012.41
2018-06-25T13:59:33.105Z,101013.94
2018-06-25T14:01:38.403Z,101014.09
2018-06-25T14:03:43.835Z,101007.20
2018-06-25T14:05:49.291Z,101006.78
2018-06-25T14:07:55.006Z,101004.70
2018-06-25T14:10:00.492Z,101007.58
2018-06-25T14:12:06.144Z,101008.56
2018-06-25T14:14:11.698Z,101008.36
2018-06-25T14:16:17.168Z,101004.88
2018-06-25T14:18:22.505Z,101011.23
2018-06-25T14:20:28.041Z,101013.11
2018-06-25T14:22:33.479Z,101013.89
2018-06-25T14:24:44.152Z,101012.47
2018-06-25T14:26:49.532Z,101019.07
2018-06-25T14:28:54.971Z,101012.90
2018-06-25T14:31:05.867Z,101015.96
2018-06-25T14:33:10.927Z,101014.33
2018-06-25T14:35:16.827Z,101010.48
2018-06-25T14:37:22.327Z,101009.55
2018-06-25T14:39:28.009Z,101003.05
2018-06-25T14:41:33.424Z,101002.67
2018-06-25T14:43:38.757Z,100993.73
2018-06-25T14:45:44.104Z,100995.84
2018-06-25T14:47:49.492Z,100996.92
2018-06-25T14:49:54.942Z,100994.09
2018-06-25T14:52:00.331Z,100998.41
2018-06-25T14:54:05.811Z,100993.34
2018-06-25T14:56:11.243Z,100997.19
2018-06-25T14:58:16.635Z,100996.41
2018-06-25T15:00:22.381Z,100992.62
2018-06-25T15:02:28.890Z,100998.55
2018-06-25T15:04:34.355Z,100999.77
2018-06-25T15:06:39.861Z,100997.14
2018-06-25T15:08:45.455Z,100983.43
2018-06-25T15:10:50.799Z,100995.88
2018-06-25T15:12:56.213Z,100996.00
2018-06-25T15:15:01.718Z,100995.02
2018-06-25T15:17:07.456Z,101006.61
2018-06-25T15:19:12.861Z,100998.56
2018-06-25T15:21:18.376Z,100990.57
2018-06-25T15:23:24.003Z,100990.73
2018-06-25T15:25:29.530Z,100980.26
2018-06-25T15:27:34.935Z,100986.88
2018-06-25T15:29:40.352Z,100989.79
2018-06-25T15:31:45.721Z,100984.25
2018-06-25T15:33:51.061Z,100989.92
2018-06-25T15:35:56.482Z,100978.91
2018-06-25T15:38:01.840Z,100968.95
2018-06-25T15:40:07.318Z,100972.92
2018-06-25T15:42:12.818Z,100972.20
2018-06-25T15:44:18.201Z,100972.85
2018-06-25T15:46:23.639Z,100969.94
2018-06-25T15:48:29.083Z,100970.23
2018-06-25T15:50:34.521Z,100970.36
2018-06-25T15:52:40.007Z,100963.78
2018-06-25T15:54:45.413Z,100966.95
2018-06-25T15:56:50.796Z,100968.04
2018-06-25T15:58:56.331Z,100967.12
2018-06-25T16:01:01.770Z,100963.66
2018-06-25T16:03:07.217Z,100961.03
2018-06-25T16:05:12.582Z,100960.64
2018-06-25T16:07:17.953Z,100957.06
2018-06-25T16:09:23.332Z,100956.63
2018-06-25T16:11:28.734Z,100956.20
2018-06-25T16:13:34.163Z,100952.59
2018-06-25T16:15:39.575Z,100945.31
2018-06-25T16:17:45.126Z,100947.92
2018-06-25T16:19:50.498Z,100950.94
2018-06-25T16:21:55.975Z,100955.49
2018-06-25T16:24:01.503Z,100957.59
2018-06-25T16:26:06.998Z,100951.05
2018-06-25T16:28:12.356Z,100955.56
2018-06-25T16:30:17.787Z,100953.80
2018-06-25T16:32:23.485Z,100958.23
2018-06-25T16:34:28.925Z,100954.64
2018-06-25T16:36:34.545Z,100954.08
2018-06-25T16:38:40.154Z,100958.24
2018-06-25T16:40:45.936Z,100951.33
2018-06-25T16:42:51.612Z,100951.46
2018-06-25T16:44:57.116Z,100960.73
2018-06-25T16:47:02.501Z,100962.70
2018-06-25T16:49:07.627Z,100961.75
2018-06-25T16:51:12.913Z,100964.38
2018-06-25T16:53:18.267Z,100963.09
2018-06-25T16:55:23.681Z,100963.36
2018-06-25T16:57:29.026Z,100960.83
2018-06-25T16:59:34.595Z,100954.25
2018-06-25T17:01:39.768Z,100963.03
2018-06-25T17:03:45.219Z,100965.97
2018-06-25T17:05:50.699Z,100966.39
2018-06-25T17:07:56.138Z,100964.08
2018-06-25T17:10:01.541Z,100959.39
2018-06-25T17:12:06.605Z,100966.56
2018-06-25T17:14:11.902Z,100963.65
2018-06-25T17:16:17.334Z,100969.15
2018-06-25T17:18:22.681Z,100966.34
2018-06-25T17:20:28.622Z,100964.70
2018-06-25T17:22:34.076Z,100966.27
2018-06-25T17:24:39.457Z,100963.09
2018-06-25T17:26:44.978Z,100961.39
2018-06-25T17:28:50.383Z,100958.08
2018-06-25T17:30:55.737Z,100957.79
2018-06-25T17:33:01.172Z,100962.05
2018-06-25T17:35:06.637Z,100966.56
2018-06-25T17:37:12.030Z,100964.14
2018-06-25T17:39:17.565Z,100963.45
2018-06-25T17:41:23.020Z,100965.00
2018-06-25T17:43:28.657Z,100963.78
2018-06-25T17:45:34.181Z,100960.77
2018-06-25T17:47:39.569Z,100962.86
2018-06-25T17:49:44.969Z,100961.45
2018-06-25T17:51:50.483Z,100960.73
2018-06-25T17:53:55.848Z,100964.27
2018-06-25T17:56:01.288Z,100968.79
2018-06-25T17:58:06.894Z,100964.56
2018-06-25T18:00:12.362Z,100960.47
2018-06-25T18:02:17.892Z,100966.81
2018-06-25T18:04:23.421Z,100962.30
2018-06-25T18:06:28.985Z,100961.81
2018-06-25T18:08:34.434Z,100959.81
2018-06-25T18:10:39.769Z,100960.17
2018-06-25T18:12:45.238Z,100956.80
2018-06-25T18:14:50.808Z,100966.95
2018-06-25T18:16:56.219Z,100960.95
2018-06-25T18:19:01.651Z,100964.67
2018-06-25T18:21:07.119Z,100969.80
2018-06-25T18:23:12.668Z,100970.81
2018-06-25T18:25:18.277Z,100975.53
2018-06-25T18:27:23.355Z,100974.92
2018-06-25T18:29:29.269Z,100974.42
2018-06-25T18:31:34.992Z,100980.36
2018-06-25T18:33:40.535Z,100980.92
2018-06-25T18:35:46.046Z,100979.45
2018-06-25T18:37:51.573Z,100978.73
2018-06-25T18:39:56.945Z,100985.44
2018-06-25T18:42:02.409Z,100985.11
2018-06-25T18:44:07.831Z,100987.43
2018-06-25T18:46:13.196Z,100983.89
2018-06-25T18:48:18.633Z,100976.33
2018-06-25T18:50:24.065Z,100979.50
2018-06-25T18:52:29.509Z,100981.83
2018-06-25T18:54:34.952Z,100976.13
2018-06-25T18:56:40.386Z,100979.80
2018-06-25T18:58:45.906Z,100979.92
2018-06-25T19:00:51.468Z,100982.25
2018-06-25T19:02:56.867Z,100979.36
2018-06-25T19:05:02.210Z,100985.97
2018-06-25T19:07:07.743Z,100980.39
2018-06-25T19:09:13.377Z,100989.06
2018-06-25T19:11:18.815Z,100986.05
2018-06-25T19:13:24.318Z,100992.39
2018-06-25T19:15:29.878Z,100995.08
2018-06-25T19:17:35.314Z,100990.33
2018-06-25T19:19:40.837Z,100998.14
2018-06-25T19:21:46.176Z,101001.08
2018-06-25T19:23:51.540Z,101005.39
2018-06-25T19:25:57.088Z,101002.27
2018-06-25T19:28:02.612Z,101002.56
2018-06-25T19:30:08.268Z,101002.52
2018-06-25T19:32:16.576Z,101006.05
2018-06-25T19:34:22.054Z,101013.72
2018-06-25T19:36:27.593Z,101009.15
2018-06-25T19:38:33.123Z,101015.42
2018-06-25T19:40:38.538Z,101011.70
2018-06-25T19:42:43.960Z,101019.52
2018-06-25T19:44:49.407Z,101024.05
2018-06-25T19:46:54.763Z,101025.41
2018-06-25T19:49:00.205Z,101026.91
2018-06-25T19:51:05.808Z,101031.92
2018-06-25T19:53:11.266Z,101034.21
2018-06-25T19:55:16.665Z,101034.23
2018-06-25T19:57:22.001Z,101037.28
2018-06-25T19:59:27.430Z,101036.69
2018-06-25T20:01:32.941Z,101045.22
2018-06-25T20:03:38.429Z,101046.94
2018-06-25T20:05:43.833Z,101046.69
2018-06-25T20:07:49.310Z,101041.34
2018-06-25T20:09:54.773Z,101050.59
2018-06-25T20:12:00.149Z,101046.84
2018-06-25T20:14:05.907Z,101049.41
2018-06-25T20:16:11.374Z,101053.77
2018-06-25T20:18:16.791Z,101058.41
2018-06-25T20:20:22.317Z,101059.63
2018-06-25T20:22:29.119Z,101050.75
2018-06-25T20:24:34.532Z,101054.50
2018-06-25T20:26:39.933Z,101047.81
2018-06-25T20:28:45.356Z,101061.64
2018-06-25T20:30:50.856Z,101060.56
2018-06-25T20:32:56.563Z,101064.20
2018-06-25T20:35:01.997Z,101060.44
2018-06-25T20:37:07.477Z,101067.83
2018-06-25T20:39:13.005Z,101069.42
2018-06-25T20:41:18.420Z,101070.02
2018-06-25T20:43:23.812Z,101071.13
2018-06-25T20:45:29.288Z,101076.70
2018-06-25T20:47:34.712Z,101080.59
2018-06-25T20:49:40.146Z,101077.20
2018-06-25T20:51:45.692Z,101081.43
2018-06-25T20:53:50.855Z,101085.21
2018-06-25T20:55:56.382Z,101086.66
2018-06-25T20:58:01.796Z,101086.88
2018-06-25T21:00:06.899Z,101083.97
2018-06-25T21:02:12.197Z,101082.27
2018-06-25T21:04:17.660Z,101083.84
2018-06-25T21:06:23.060Z,101078.98
2018-06-25T21:08:29.222Z,101078.61
2018-06-25T21:10:34.663Z,101084.42
2018-06-25T21:12:40.074Z,101080.77
2018-06-25T21:14:45.521Z,101081.36
2018-06-25T21:16:50.932Z,101082.46
2018-06-25T21:18:56.380Z,101078.70
2018-06-25T21:21:01.775Z,101080.36
2018-06-25T21:23:07.587Z,101086.02
2018-06-25T21:25:12.965Z,101087.60
2018-06-25T21:27:18.404Z,101083.58
2018-06-25T21:29:23.880Z,101088.41
2018-06-25T21:31:29.348Z,101081.95
2018-06-25T21:33:34.446Z,101083.15
2018-06-25T21:35:39.939Z,101090.55
2018-06-25T21:37:44.992Z,101090.42
2018-06-25T21:39:50.425Z,101091.11
2018-06-25T21:41:55.840Z,101094.77
2018-06-25T21:44:01.223Z,101094.02
2018-06-25T21:46:06.777Z,101092.75
2018-06-25T21:48:12.232Z,101095.29
2018-06-25T21:50:17.589Z,101096.86
2018-06-25T21:52:23.108Z,101092.69
2018-06-25T21:54:29.284Z,101098.37
2018-06-25T21:56:34.632Z,101092.41
2018-06-25T21:58:40.209Z,101092.14
2018-06-25T22:00:51.019Z,101100.76
2018-06-25T22:02:56.345Z,101102.95
2018-06-25T22:05:01.705Z,101103.19
2018-06-25T22:07:07.106Z,101102.61
2018-06-25T22:09:12.503Z,101103.94
2018-06-25T22:11:17.856Z,101106.52
2018-06-25T22:13:23.380Z,101111.61
2018-06-25T22:15:29.401Z,101113.56
2018-06-25T22:17:34.825Z,101106.41
2018-06-25T22:19:40.114Z,101104.22
2018-06-25T22:21:45.457Z,101105.08
2018-06-25T22:23:50.787Z,101104.97
2018-06-25T22:25:56.149Z,101104.84
2018-06-25T22:28:01.522Z,101104.32
2018-06-25T22:30:06.894Z,101097.85
2018-06-25T22:32:12.295Z,101093.98
2018-06-25T22:34:17.593Z,101095.90
2018-06-25T22:36:23.808Z,101095.63
2018-06-25T22:38:29.582Z,101094.12
2018-06-25T22:40:34.911Z,101094.45
2018-06-25T22:42:40.743Z,101086.41
2018-06-25T22:44:46.132Z,101092.19
2018-06-25T22:46:51.462Z,101091.28
2018-06-25T22:48:56.842Z,101087.47
2018-06-25T22:51:02.143Z,101089.47
2018-06-25T22:53:07.436Z,101088.36
2018-06-25T22:55:12.780Z,101096.54
2018-06-25T22:57:18.078Z,101088.95
2018-06-25T22:59:23.600Z,101092.47
2018-06-25T23:01:29.849Z,101092.98
2018-06-25T23:03:35.185Z,101093.86
2018-06-25T23:05:40.528Z,101086.19
2018-06-25T23:07:45.927Z,101091.26
2018-06-25T23:09:51.245Z,101086.03
2018-06-25T23:11:56.572Z,101098.11
2018-06-25T23:14:01.877Z,101098.89
2018-06-25T23:16:07.255Z,101093.88
2018-06-25T23:18:12.790Z,101097.23
2018-06-25T23:20:18.116Z,101094.28
2018-06-25T23:22:23.477Z,101093.73
2018-06-25T23:24:29.924Z,101094.01
2018-06-25T23:26:35.177Z,101099.26
2018-06-25T23:28:40.549Z,101098.80
2018-06-25T23:30:45.865Z,101097.77
2018-06-25T23:32:51.223Z,101100.86
2018-06-25T23:34:56.644Z,101102.58
2018-06-25T23:37:01.936Z,101098.60
2018-06-25T23:39:10.690Z,101098.90
2018-06-25T23:41:16.031Z,101104.99
2018-06-25T23:43:21.309Z,101101.86
2018-06-25T23:45:26.644Z,101101.03
2018-06-25T23:47:32.005Z,101103.31
2018-06-25T23:49:37.412Z,101104.25
2018-06-25T23:51:42.711Z,101102.05
2018-06-25T23:53:48.031Z,101106.23
2018-06-25T23:55:53.312Z,101103.56
2018-06-25T23:57:58.733Z,101112.50
